sensor_id;sensor_type;location;lat;lon;timestamp;P1;durP1;ratioP1;P2;durP2;ratioP2
16480;SDS011;44634;54.110;12.138;2022-11-15T00:01:33;83.20;;;31.60;;
16480;SDS011;44634;54.110;12.138;2022-11-15T00:04:03;85.67;;;35.50;;
16480;SDS011;44634;54.110;12.138;2022-11-15T00:06:31;75.37;;;33.33;;
16480;SDS011;44634;54.110;12.138;2022-11-15T00:08:59;80.10;;;34.40;;
16480;SDS011;44634;54.110;12.138;2022-11-15T00:11:28;86.47;;;34.73;;
16480;SDS011;44634;54.110;12.138;2022-11-15T00:13:56;83.33;;;34.13;;
16480;SDS011;44634;54.110;12.138;2022-11-15T00:16:25;76.93;;;32.57;;
16480;SDS011;44634;54.110;12.138;2022-11-15T00:18:53;83.80;;;33.23;;
16480;SDS011;44634;54.110;12.138;2022-11-15T00:21:20;85.43;;;33.07;;
16480;SDS011;44634;54.110;12.138;2022-11-15T00:23:48;82.57;;;33.57;;
16480;SDS011;44634;54.110;12.138;2022-11-15T00:26:16;77.77;;;31.77;;
16480;SDS011;44634;54.110;12.138;2022-11-15T00:28:44;87.80;;;33.57;;
16480;SDS011;44634;54.110;12.138;2022-11-15T00:31:12;85.40;;;34.43;;
16480;SDS011;44634;54.110;12.138;2022-11-15T00:33:43;81.40;;;34.17;;
16480;SDS011;44634;54.110;12.138;2022-11-15T00:36:12;80.40;;;32.40;;
16480;SDS011;44634;54.110;12.138;2022-11-15T00:38:40;76.63;;;31.63;;
16480;SDS011;44634;54.110;12.138;2022-11-15T00:41:08;77.97;;;32.93;;
16480;SDS011;44634;54.110;12.138;2022-11-15T00:43:36;87.57;;;33.33;;
16480;SDS011;44634;54.110;12.138;2022-11-15T00:46:06;77.83;;;31.10;;
16480;SDS011;44634;54.110;12.138;2022-11-15T00:48:35;80.90;;;33.07;;
16480;SDS011;44634;54.110;12.138;2022-11-15T00:51:04;73.40;;;32.27;;
16480;SDS011;44634;54.110;12.138;2022-11-15T00:53:32;81.10;;;33.10;;
16480;SDS011;44634;54.110;12.138;2022-11-15T00:56:00;80.60;;;34.63;;
16480;SDS011;44634;54.110;12.138;2022-11-15T00:58:28;77.00;;;32.47;;
16480;SDS011;44634;54.110;12.138;2022-11-15T01:00:56;75.30;;;33.07;;
16480;SDS011;44634;54.110;12.138;2022-11-15T01:03:23;84.83;;;34.90;;
16480;SDS011;44634;54.110;12.138;2022-11-15T01:05:51;76.57;;;33.07;;
16480;SDS011;44634;54.110;12.138;2022-11-15T01:08:20;86.60;;;34.10;;
16480;SDS011;44634;54.110;12.138;2022-11-15T01:10:48;76.13;;;33.00;;
16480;SDS011;44634;54.110;12.138;2022-11-15T01:13:16;79.27;;;31.00;;
16480;SDS011;44634;54.110;12.138;2022-11-15T01:15:43;70.50;;;32.83;;
16480;SDS011;44634;54.110;12.138;2022-11-15T01:18:11;75.70;;;33.17;;
16480;SDS011;44634;54.110;12.138;2022-11-15T01:20:39;69.73;;;31.43;;
16480;SDS011;44634;54.110;12.138;2022-11-15T01:23:08;71.23;;;29.47;;
16480;SDS011;44634;54.110;12.138;2022-11-15T01:25:37;74.73;;;32.80;;
16480;SDS011;44634;54.110;12.138;2022-11-15T01:28:05;78.30;;;34.40;;
16480;SDS011;44634;54.110;12.138;2022-11-15T01:30:33;67.33;;;31.00;;
16480;SDS011;44634;54.110;12.138;2022-11-15T01:33:01;77.80;;;32.70;;
16480;SDS011;44634;54.110;12.138;2022-11-15T01:35:28;79.47;;;33.30;;
16480;SDS011;44634;54.110;12.138;2022-11-15T01:37:56;77.43;;;33.07;;
16480;SDS011;44634;54.110;12.138;2022-11-15T01:40:24;76.37;;;32.80;;
16480;SDS011;44634;54.110;12.138;2022-11-15T01:42:53;83.30;;;31.60;;
16480;SDS011;44634;54.110;12.138;2022-11-15T01:45:21;80.53;;;33.63;;
16480;SDS011;44634;54.110;12.138;2022-11-15T01:47:50;75.43;;;32.43;;
16480;SDS011;44634;54.110;12.138;2022-11-15T01:50:21;70.07;;;32.33;;
16480;SDS011;44634;54.110;12.138;2022-11-15T01:52:53;83.50;;;32.90;;
16480;SDS011;44634;54.110;12.138;2022-11-15T01:55:21;77.13;;;32.07;;
16480;SDS011;44634;54.110;12.138;2022-11-15T01:57:54;73.80;;;31.90;;
16480;SDS011;44634;54.110;12.138;2022-11-15T02:00:23;79.40;;;32.73;;
16480;SDS011;44634;54.110;12.138;2022-11-15T02:02:51;79.00;;;33.43;;
16480;SDS011;44634;54.110;12.138;2022-11-15T02:05:19;80.73;;;33.37;;
16480;SDS011;44634;54.110;12.138;2022-11-15T02:07:46;75.43;;;31.97;;
16480;SDS011;44634;54.110;12.138;2022-11-15T02:10:17;87.73;;;32.63;;
16480;SDS011;44634;54.110;12.138;2022-11-15T02:12:46;76.03;;;32.63;;
16480;SDS011;44634;54.110;12.138;2022-11-15T02:15:16;79.03;;;32.87;;
16480;SDS011;44634;54.110;12.138;2022-11-15T02:17:50;81.20;;;33.53;;
16480;SDS011;44634;54.110;12.138;2022-11-15T02:20:43;86.80;;;33.73;;
16480;SDS011;44634;54.110;12.138;2022-11-15T02:23:28;68.50;;;31.10;;
16480;SDS011;44634;54.110;12.138;2022-11-15T02:29:20;79.37;;;32.73;;
16480;SDS011;44634;54.110;12.138;2022-11-15T02:32:03;82.33;;;32.37;;
16480;SDS011;44634;54.110;12.138;2022-11-15T02:34:36;82.03;;;32.27;;
16480;SDS011;44634;54.110;12.138;2022-11-15T02:37:15;73.03;;;31.10;;
16480;SDS011;44634;54.110;12.138;2022-11-15T02:39:49;76.07;;;33.43;;
16480;SDS011;44634;54.110;12.138;2022-11-15T02:42:23;82.80;;;33.37;;
16480;SDS011;44634;54.110;12.138;2022-11-15T02:45:11;77.37;;;32.23;;
16480;SDS011;44634;54.110;12.138;2022-11-15T02:47:45;79.67;;;32.30;;
16480;SDS011;44634;54.110;12.138;2022-11-15T02:50:35;77.33;;;32.23;;
16480;SDS011;44634;54.110;12.138;2022-11-15T02:53:03;76.20;;;32.23;;
16480;SDS011;44634;54.110;12.138;2022-11-15T02:55:32;72.97;;;31.40;;
16480;SDS011;44634;54.110;12.138;2022-11-15T02:58:07;75.20;;;32.03;;
16480;SDS011;44634;54.110;12.138;2022-11-15T03:00:48;78.83;;;32.30;;
16480;SDS011;44634;54.110;12.138;2022-11-15T03:03:43;81.47;;;32.47;;
16480;SDS011;44634;54.110;12.138;2022-11-15T03:06:20;69.37;;;30.57;;
16480;SDS011;44634;54.110;12.138;2022-11-15T03:08:59;74.80;;;30.93;;
16480;SDS011;44634;54.110;12.138;2022-11-15T03:11:32;74.53;;;31.60;;
16480;SDS011;44634;54.110;12.138;2022-11-15T03:14:06;83.87;;;33.10;;
16480;SDS011;44634;54.110;12.138;2022-11-15T03:16:41;72.30;;;31.97;;
16480;SDS011;44634;54.110;12.138;2022-11-15T03:19:17;82.53;;;31.50;;
16480;SDS011;44634;54.110;12.138;2022-11-15T03:21:51;75.23;;;31.17;;
16480;SDS011;44634;54.110;12.138;2022-11-15T03:24:22;77.60;;;32.00;;
16480;SDS011;44634;54.110;12.138;2022-11-15T03:26:53;73.53;;;31.63;;
16480;SDS011;44634;54.110;12.138;2022-11-15T03:29:24;79.53;;;33.63;;
16480;SDS011;44634;54.110;12.138;2022-11-15T03:31:58;77.13;;;32.47;;
16480;SDS011;44634;54.110;12.138;2022-11-15T03:34:33;70.33;;;31.03;;
16480;SDS011;44634;54.110;12.138;2022-11-15T03:37:05;81.53;;;33.30;;
16480;SDS011;44634;54.110;12.138;2022-11-15T03:39:34;79.10;;;32.33;;
16480;SDS011;44634;54.110;12.138;2022-11-15T03:42:04;80.07;;;31.73;;
16480;SDS011;44634;54.110;12.138;2022-11-15T03:44:40;73.20;;;32.10;;
16480;SDS011;44634;54.110;12.138;2022-11-15T03:47:14;67.77;;;32.00;;
16480;SDS011;44634;54.110;12.138;2022-11-15T03:49:49;73.43;;;30.80;;
16480;SDS011;44634;54.110;12.138;2022-11-15T03:52:19;66.37;;;30.60;;
16480;SDS011;44634;54.110;12.138;2022-11-15T03:54:49;76.80;;;31.90;;
16480;SDS011;44634;54.110;12.138;2022-11-15T03:57:18;73.13;;;29.90;;
16480;SDS011;44634;54.110;12.138;2022-11-15T03:59:46;71.50;;;28.83;;
16480;SDS011;44634;54.110;12.138;2022-11-15T04:02:14;77.60;;;31.70;;
16480;SDS011;44634;54.110;12.138;2022-11-15T04:04:41;75.97;;;32.37;;
16480;SDS011;44634;54.110;12.138;2022-11-15T04:07:10;74.13;;;31.53;;
16480;SDS011;44634;54.110;12.138;2022-11-15T04:09:38;77.03;;;31.77;;
16480;SDS011;44634;54.110;12.138;2022-11-15T04:12:20;70.30;;;30.40;;
16480;SDS011;44634;54.110;12.138;2022-11-15T04:14:57;76.40;;;32.40;;
16480;SDS011;44634;54.110;12.138;2022-11-15T04:17:35;79.37;;;32.40;;
16480;SDS011;44634;54.110;12.138;2022-11-15T04:20:05;76.70;;;31.73;;
16480;SDS011;44634;54.110;12.138;2022-11-15T04:22:54;81.63;;;32.53;;
16480;SDS011;44634;54.110;12.138;2022-11-15T04:25:39;75.30;;;31.93;;
16480;SDS011;44634;54.110;12.138;2022-11-15T04:28:08;74.83;;;32.37;;
16480;SDS011;44634;54.110;12.138;2022-11-15T04:30:36;67.97;;;29.87;;
16480;SDS011;44634;54.110;12.138;2022-11-15T04:33:04;74.60;;;29.93;;
16480;SDS011;44634;54.110;12.138;2022-11-15T04:35:32;68.47;;;28.97;;
16480;SDS011;44634;54.110;12.138;2022-11-15T04:38:02;64.07;;;29.93;;
16480;SDS011;44634;54.110;12.138;2022-11-15T04:40:30;70.17;;;31.57;;
16480;SDS011;44634;54.110;12.138;2022-11-15T04:42:58;70.73;;;32.23;;
16480;SDS011;44634;54.110;12.138;2022-11-15T04:45:29;83.80;;;35.40;;
16480;SDS011;44634;54.110;12.138;2022-11-15T04:47:57;81.57;;;32.07;;
16480;SDS011;44634;54.110;12.138;2022-11-15T04:50:24;77.57;;;31.83;;
16480;SDS011;44634;54.110;12.138;2022-11-15T04:52:53;74.17;;;30.00;;
16480;SDS011;44634;54.110;12.138;2022-11-15T04:55:22;77.87;;;32.83;;
16480;SDS011;44634;54.110;12.138;2022-11-15T04:57:57;80.50;;;32.10;;
16480;SDS011;44634;54.110;12.138;2022-11-15T05:00:26;87.17;;;33.53;;
16480;SDS011;44634;54.110;12.138;2022-11-15T05:02:54;75.90;;;31.53;;
16480;SDS011;44634;54.110;12.138;2022-11-15T05:05:41;86.43;;;34.93;;
16480;SDS011;44634;54.110;12.138;2022-11-15T05:08:09;78.97;;;32.00;;
16480;SDS011;44634;54.110;12.138;2022-11-15T05:10:38;76.93;;;31.50;;
16480;SDS011;44634;54.110;12.138;2022-11-15T05:13:05;82.93;;;34.13;;
16480;SDS011;44634;54.110;12.138;2022-11-15T05:15:33;79.93;;;32.07;;
16480;SDS011;44634;54.110;12.138;2022-11-15T05:18:01;73.87;;;32.07;;
16480;SDS011;44634;54.110;12.138;2022-11-15T05:20:29;102.93;;;32.57;;
16480;SDS011;44634;54.110;12.138;2022-11-15T05:22:56;82.00;;;32.80;;
16480;SDS011;44634;54.110;12.138;2022-11-15T05:25:24;73.83;;;30.97;;
16480;SDS011;44634;54.110;12.138;2022-11-15T05:27:53;78.63;;;30.00;;
16480;SDS011;44634;54.110;12.138;2022-11-15T05:30:21;76.57;;;32.10;;
16480;SDS011;44634;54.110;12.138;2022-11-15T05:32:49;70.27;;;31.37;;
16480;SDS011;44634;54.110;12.138;2022-11-15T05:35:18;73.53;;;31.07;;
16480;SDS011;44634;54.110;12.138;2022-11-15T05:37:55;79.27;;;31.17;;
16480;SDS011;44634;54.110;12.138;2022-11-15T05:40:23;74.20;;;30.33;;
16480;SDS011;44634;54.110;12.138;2022-11-15T05:42:52;79.20;;;31.00;;
16480;SDS011;44634;54.110;12.138;2022-11-15T05:45:21;74.50;;;29.33;;
16480;SDS011;44634;54.110;12.138;2022-11-15T05:47:54;76.10;;;31.70;;
16480;SDS011;44634;54.110;12.138;2022-11-15T05:50:25;68.60;;;30.10;;
16480;SDS011;44634;54.110;12.138;2022-11-15T05:52:54;79.00;;;30.80;;
16480;SDS011;44634;54.110;12.138;2022-11-15T05:55:29;69.93;;;30.33;;
16480;SDS011;44634;54.110;12.138;2022-11-15T05:58:00;74.37;;;31.13;;
16480;SDS011;44634;54.110;12.138;2022-11-15T06:00:28;77.57;;;32.23;;
16480;SDS011;44634;54.110;12.138;2022-11-15T06:02:56;74.00;;;29.40;;
16480;SDS011;44634;54.110;12.138;2022-11-15T06:05:24;69.37;;;30.90;;
16480;SDS011;44634;54.110;12.138;2022-11-15T06:07:51;71.00;;;27.60;;
16480;SDS011;44634;54.110;12.138;2022-11-15T06:10:19;76.33;;;31.77;;
16480;SDS011;44634;54.110;12.138;2022-11-15T06:12:47;75.20;;;29.87;;
16480;SDS011;44634;54.110;12.138;2022-11-15T06:15:25;74.93;;;30.07;;
16480;SDS011;44634;54.110;12.138;2022-11-15T06:17:55;68.37;;;30.30;;
16480;SDS011;44634;54.110;12.138;2022-11-15T06:20:24;74.63;;;30.97;;
16480;SDS011;44634;54.110;12.138;2022-11-15T06:22:55;75.03;;;30.17;;
16480;SDS011;44634;54.110;12.138;2022-11-15T06:25:24;69.87;;;31.17;;
16480;SDS011;44634;54.110;12.138;2022-11-15T06:27:52;72.33;;;29.70;;
16480;SDS011;44634;54.110;12.138;2022-11-15T06:30:20;71.20;;;29.67;;
16480;SDS011;44634;54.110;12.138;2022-11-15T06:32:49;76.87;;;30.33;;
16480;SDS011;44634;54.110;12.138;2022-11-15T06:35:17;73.87;;;30.33;;
16480;SDS011;44634;54.110;12.138;2022-11-15T06:37:45;77.63;;;30.40;;
16480;SDS011;44634;54.110;12.138;2022-11-15T06:40:13;78.37;;;32.03;;
16480;SDS011;44634;54.110;12.138;2022-11-15T06:42:41;69.73;;;28.57;;
16480;SDS011;44634;54.110;12.138;2022-11-15T06:45:09;71.23;;;29.83;;
16480;SDS011;44634;54.110;12.138;2022-11-15T06:47:43;71.87;;;30.97;;
16480;SDS011;44634;54.110;12.138;2022-11-15T06:50:13;78.17;;;32.87;;
16480;SDS011;44634;54.110;12.138;2022-11-15T06:52:42;78.47;;;31.97;;
16480;SDS011;44634;54.110;12.138;2022-11-15T06:55:10;73.77;;;31.30;;
16480;SDS011;44634;54.110;12.138;2022-11-15T06:57:40;64.17;;;28.67;;
16480;SDS011;44634;54.110;12.138;2022-11-15T07:00:14;72.00;;;28.80;;
16480;SDS011;44634;54.110;12.138;2022-11-15T07:02:43;71.87;;;30.93;;
16480;SDS011;44634;54.110;12.138;2022-11-15T07:05:11;72.53;;;29.90;;
16480;SDS011;44634;54.110;12.138;2022-11-15T07:07:41;73.43;;;31.13;;
16480;SDS011;44634;54.110;12.138;2022-11-15T07:10:09;67.93;;;29.53;;
16480;SDS011;44634;54.110;12.138;2022-11-15T07:12:36;74.00;;;30.30;;
16480;SDS011;44634;54.110;12.138;2022-11-15T07:15:05;74.07;;;30.27;;
16480;SDS011;44634;54.110;12.138;2022-11-15T07:17:33;73.73;;;29.20;;
16480;SDS011;44634;54.110;12.138;2022-11-15T07:20:01;74.40;;;31.63;;
16480;SDS011;44634;54.110;12.138;2022-11-15T07:22:29;74.67;;;31.27;;
16480;SDS011;44634;54.110;12.138;2022-11-15T07:24:58;74.87;;;30.83;;
16480;SDS011;44634;54.110;12.138;2022-11-15T07:27:26;128.37;;;60.57;;
16480;SDS011;44634;54.110;12.138;2022-11-15T07:29:54;78.10;;;32.37;;
16480;SDS011;44634;54.110;12.138;2022-11-15T07:32:22;80.37;;;33.33;;
16480;SDS011;44634;54.110;12.138;2022-11-15T07:34:49;75.17;;;31.27;;
16480;SDS011;44634;54.110;12.138;2022-11-15T07:37:17;73.73;;;31.53;;
16480;SDS011;44634;54.110;12.138;2022-11-15T07:39:45;78.60;;;32.37;;
16480;SDS011;44634;54.110;12.138;2022-11-15T07:42:14;68.30;;;30.33;;
16480;SDS011;44634;54.110;12.138;2022-11-15T07:44:59;74.10;;;30.23;;
16480;SDS011;44634;54.110;12.138;2022-11-15T07:47:28;81.93;;;34.23;;
16480;SDS011;44634;54.110;12.138;2022-11-15T07:49:55;76.10;;;30.80;;
16480;SDS011;44634;54.110;12.138;2022-11-15T07:52:23;71.57;;;30.83;;
16480;SDS011;44634;54.110;12.138;2022-11-15T07:54:51;72.10;;;30.93;;
16480;SDS011;44634;54.110;12.138;2022-11-15T07:57:20;78.83;;;31.80;;
16480;SDS011;44634;54.110;12.138;2022-11-15T07:59:47;78.17;;;31.00;;
16480;SDS011;44634;54.110;12.138;2022-11-15T08:02:15;72.37;;;30.30;;
16480;SDS011;44634;54.110;12.138;2022-11-15T08:04:44;80.00;;;31.87;;
16480;SDS011;44634;54.110;12.138;2022-11-15T08:07:11;74.70;;;30.23;;
16480;SDS011;44634;54.110;12.138;2022-11-15T08:09:39;71.17;;;31.00;;
16480;SDS011;44634;54.110;12.138;2022-11-15T08:12:07;70.83;;;31.00;;
16480;SDS011;44634;54.110;12.138;2022-11-15T08:14:36;64.10;;;30.20;;
16480;SDS011;44634;54.110;12.138;2022-11-15T08:17:04;75.40;;;33.33;;
16480;SDS011;44634;54.110;12.138;2022-11-15T08:19:32;72.77;;;30.63;;
16480;SDS011;44634;54.110;12.138;2022-11-15T08:22:00;77.47;;;31.10;;
16480;SDS011;44634;54.110;12.138;2022-11-15T08:24:27;66.63;;;29.07;;
16480;SDS011;44634;54.110;12.138;2022-11-15T08:26:55;67.13;;;29.10;;
16480;SDS011;44634;54.110;12.138;2022-11-15T08:29:23;66.27;;;30.80;;
16480;SDS011;44634;54.110;12.138;2022-11-15T08:31:53;72.37;;;31.50;;
16480;SDS011;44634;54.110;12.138;2022-11-15T08:34:22;71.33;;;30.07;;
16480;SDS011;44634;54.110;12.138;2022-11-15T08:36:50;65.17;;;30.03;;
16480;SDS011;44634;54.110;12.138;2022-11-15T08:39:17;62.73;;;28.80;;
16480;SDS011;44634;54.110;12.138;2022-11-15T08:41:45;69.13;;;31.30;;
16480;SDS011;44634;54.110;12.138;2022-11-15T08:44:13;57.53;;;28.10;;
16480;SDS011;44634;54.110;12.138;2022-11-15T08:46:40;69.37;;;31.87;;
16480;SDS011;44634;54.110;12.138;2022-11-15T08:49:09;61.00;;;28.20;;
16480;SDS011;44634;54.110;12.138;2022-11-15T08:51:37;62.97;;;28.70;;
16480;SDS011;44634;54.110;12.138;2022-11-15T08:54:05;60.50;;;29.17;;
16480;SDS011;44634;54.110;12.138;2022-11-15T08:56:33;57.37;;;27.60;;
16480;SDS011;44634;54.110;12.138;2022-11-15T08:59:01;53.50;;;27.83;;
16480;SDS011;44634;54.110;12.138;2022-11-15T09:01:28;55.23;;;28.83;;
16480;SDS011;44634;54.110;12.138;2022-11-15T09:03:56;60.57;;;29.77;;
16480;SDS011;44634;54.110;12.138;2022-11-15T09:06:25;59.73;;;29.00;;
16480;SDS011;44634;54.110;12.138;2022-11-15T09:08:53;56.07;;;27.17;;
16480;SDS011;44634;54.110;12.138;2022-11-15T09:11:21;54.27;;;27.67;;
16480;SDS011;44634;54.110;12.138;2022-11-15T09:13:49;60.50;;;27.07;;
16480;SDS011;44634;54.110;12.138;2022-11-15T09:16:17;54.73;;;28.40;;
16480;SDS011;44634;54.110;12.138;2022-11-15T09:18:45;52.80;;;26.30;;
16480;SDS011;44634;54.110;12.138;2022-11-15T09:21:13;47.67;;;27.03;;
16480;SDS011;44634;54.110;12.138;2022-11-15T09:23:42;52.50;;;26.43;;
16480;SDS011;44634;54.110;12.138;2022-11-15T09:26:10;49.90;;;25.40;;
16480;SDS011;44634;54.110;12.138;2022-11-15T09:28:37;48.40;;;24.60;;
16480;SDS011;44634;54.110;12.138;2022-11-15T09:31:08;47.70;;;25.47;;
16480;SDS011;44634;54.110;12.138;2022-11-15T09:33:36;50.43;;;25.87;;
16480;SDS011;44634;54.110;12.138;2022-11-15T09:36:05;48.63;;;25.87;;
16480;SDS011;44634;54.110;12.138;2022-11-15T09:38:34;48.77;;;24.57;;
16480;SDS011;44634;54.110;12.138;2022-11-15T09:41:24;50.00;;;25.97;;
16480;SDS011;44634;54.110;12.138;2022-11-15T09:44:06;48.60;;;25.60;;
16480;SDS011;44634;54.110;12.138;2022-11-15T09:46:52;48.90;;;25.00;;
16480;SDS011;44634;54.110;12.138;2022-11-15T09:49:41;46.07;;;24.53;;
16480;SDS011;44634;54.110;12.138;2022-11-15T09:52:09;44.83;;;24.57;;
16480;SDS011;44634;54.110;12.138;2022-11-15T09:54:38;47.30;;;24.97;;
16480;SDS011;44634;54.110;12.138;2022-11-15T09:57:23;43.93;;;24.37;;
16480;SDS011;44634;54.110;12.138;2022-11-15T10:00:00;42.93;;;23.93;;
16480;SDS011;44634;54.110;12.138;2022-11-15T10:05:39;40.57;;;22.77;;
16480;SDS011;44634;54.110;12.138;2022-11-15T10:08:12;44.90;;;23.23;;
16480;SDS011;44634;54.110;12.138;2022-11-15T10:10:52;39.37;;;23.00;;
16480;SDS011;44634;54.110;12.138;2022-11-15T10:13:45;43.00;;;23.40;;
16480;SDS011;44634;54.110;12.138;2022-11-15T10:16:23;41.13;;;22.70;;
16480;SDS011;44634;54.110;12.138;2022-11-15T10:19:05;39.67;;;22.63;;
16480;SDS011;44634;54.110;12.138;2022-11-15T10:21:45;37.70;;;22.87;;
16480;SDS011;44634;54.110;12.138;2022-11-15T10:24:24;38.93;;;23.47;;
16480;SDS011;44634;54.110;12.138;2022-11-15T10:26:54;39.60;;;21.67;;
16480;SDS011;44634;54.110;12.138;2022-11-15T10:29:24;36.77;;;21.40;;
16480;SDS011;44634;54.110;12.138;2022-11-15T10:31:52;38.60;;;21.37;;
16480;SDS011;44634;54.110;12.138;2022-11-15T10:34:21;37.37;;;22.37;;
16480;SDS011;44634;54.110;12.138;2022-11-15T10:36:53;39.30;;;21.73;;
16480;SDS011;44634;54.110;12.138;2022-11-15T10:39:22;39.07;;;22.90;;
16480;SDS011;44634;54.110;12.138;2022-11-15T10:41:50;36.50;;;20.47;;
16480;SDS011;44634;54.110;12.138;2022-11-15T10:44:20;33.83;;;21.07;;
16480;SDS011;44634;54.110;12.138;2022-11-15T10:50:06;36.03;;;21.03;;
16480;SDS011;44634;54.110;12.138;2022-11-15T10:52:52;31.17;;;19.03;;
16480;SDS011;44634;54.110;12.138;2022-11-15T10:55:24;32.23;;;20.70;;
16480;SDS011;44634;54.110;12.138;2022-11-15T10:57:55;26.90;;;17.70;;
16480;SDS011;44634;54.110;12.138;2022-11-15T11:00:36;31.23;;;19.27;;
16480;SDS011;44634;54.110;12.138;2022-11-15T11:03:06;28.70;;;18.20;;
16480;SDS011;44634;54.110;12.138;2022-11-15T11:06:02;29.37;;;17.70;;
16480;SDS011;44634;54.110;12.138;2022-11-15T11:08:32;32.63;;;19.33;;
16480;SDS011;44634;54.110;12.138;2022-11-15T11:11:01;29.53;;;18.80;;
16480;SDS011;44634;54.110;12.138;2022-11-15T11:13:30;32.40;;;19.27;;
16480;SDS011;44634;54.110;12.138;2022-11-15T11:16:06;28.27;;;18.60;;
16480;SDS011;44634;54.110;12.138;2022-11-15T11:18:44;30.53;;;19.30;;
16480;SDS011;44634;54.110;12.138;2022-11-15T11:21:22;33.47;;;19.80;;
16480;SDS011;44634;54.110;12.138;2022-11-15T11:24:06;29.60;;;18.87;;
16480;SDS011;44634;54.110;12.138;2022-11-15T11:26:42;34.20;;;19.57;;
16480;SDS011;44634;54.110;12.138;2022-11-15T11:29:26;26.07;;;17.20;;
16480;SDS011;44634;54.110;12.138;2022-11-15T11:32:08;26.77;;;17.20;;
16480;SDS011;44634;54.110;12.138;2022-11-15T11:34:51;25.63;;;16.67;;
16480;SDS011;44634;54.110;12.138;2022-11-15T11:37:28;26.87;;;17.93;;
16480;SDS011;44634;54.110;12.138;2022-11-15T11:40:06;26.57;;;17.40;;
16480;SDS011;44634;54.110;12.138;2022-11-15T11:42:47;25.67;;;16.77;;
16480;SDS011;44634;54.110;12.138;2022-11-15T11:45:28;28.23;;;18.43;;
16480;SDS011;44634;54.110;12.138;2022-11-15T11:48:23;29.60;;;17.73;;
16480;SDS011;44634;54.110;12.138;2022-11-15T11:51:08;28.37;;;18.33;;
16480;SDS011;44634;54.110;12.138;2022-11-15T11:53:42;28.70;;;17.97;;
16480;SDS011;44634;54.110;12.138;2022-11-15T11:56:19;26.20;;;17.20;;
16480;SDS011;44634;54.110;12.138;2022-11-15T11:58:54;26.97;;;17.33;;
16480;SDS011;44634;54.110;12.138;2022-11-15T12:01:28;28.87;;;19.00;;
16480;SDS011;44634;54.110;12.138;2022-11-15T12:04:03;26.20;;;18.00;;
16480;SDS011;44634;54.110;12.138;2022-11-15T12:06:37;27.57;;;17.97;;
16480;SDS011;44634;54.110;12.138;2022-11-15T12:09:11;29.00;;;17.50;;
16480;SDS011;44634;54.110;12.138;2022-11-15T12:11:47;28.30;;;18.10;;
16480;SDS011;44634;54.110;12.138;2022-11-15T12:14:31;23.50;;;16.80;;
16480;SDS011;44634;54.110;12.138;2022-11-15T12:17:01;28.87;;;18.13;;
16480;SDS011;44634;54.110;12.138;2022-11-15T12:19:30;27.57;;;17.87;;
16480;SDS011;44634;54.110;12.138;2022-11-15T12:22:00;27.93;;;17.57;;
16480;SDS011;44634;54.110;12.138;2022-11-15T12:24:33;25.70;;;17.07;;
16480;SDS011;44634;54.110;12.138;2022-11-15T12:27:06;26.90;;;17.03;;
16480;SDS011;44634;54.110;12.138;2022-11-15T12:29:52;27.73;;;17.37;;
16480;SDS011;44634;54.110;12.138;2022-11-15T12:32:25;28.10;;;17.93;;
16480;SDS011;44634;54.110;12.138;2022-11-15T12:34:57;25.87;;;16.70;;
16480;SDS011;44634;54.110;12.138;2022-11-15T12:40:22;28.77;;;17.77;;
16480;SDS011;44634;54.110;12.138;2022-11-15T12:43:04;27.40;;;17.47;;
16480;SDS011;44634;54.110;12.138;2022-11-15T12:46:01;25.97;;;17.63;;
16480;SDS011;44634;54.110;12.138;2022-11-15T12:57:32;26.77;;;17.80;;
16480;SDS011;44634;54.110;12.138;2022-11-15T13:03:17;28.50;;;18.10;;
16480;SDS011;44634;54.110;12.138;2022-11-15T13:08:40;27.43;;;18.43;;
16480;SDS011;44634;54.110;12.138;2022-11-15T13:17:16;25.37;;;16.70;;
16480;SDS011;44634;54.110;12.138;2022-11-15T13:19:52;24.47;;;16.77;;
16480;SDS011;44634;54.110;12.138;2022-11-15T13:22:25;24.70;;;16.37;;
16480;SDS011;44634;54.110;12.138;2022-11-15T13:25:21;26.20;;;17.77;;
16480;SDS011;44634;54.110;12.138;2022-11-15T13:28:01;22.30;;;15.60;;
16480;SDS011;44634;54.110;12.138;2022-11-15T13:30:33;23.97;;;16.77;;
16480;SDS011;44634;54.110;12.138;2022-11-15T13:33:06;22.13;;;15.60;;
16480;SDS011;44634;54.110;12.138;2022-11-15T13:35:38;23.70;;;16.80;;
16480;SDS011;44634;54.110;12.138;2022-11-15T13:38:11;24.70;;;17.37;;
16480;SDS011;44634;54.110;12.138;2022-11-15T13:40:47;24.33;;;16.03;;
16480;SDS011;44634;54.110;12.138;2022-11-15T13:43:28;25.70;;;17.00;;
16480;SDS011;44634;54.110;12.138;2022-11-15T13:46:10;25.27;;;16.73;;
16480;SDS011;44634;54.110;12.138;2022-11-15T13:48:40;28.67;;;18.40;;
16480;SDS011;44634;54.110;12.138;2022-11-15T13:51:10;28.73;;;17.50;;
16480;SDS011;44634;54.110;12.138;2022-11-15T13:53:45;27.07;;;16.63;;
16480;SDS011;44634;54.110;12.138;2022-11-15T13:56:16;26.17;;;16.67;;
16480;SDS011;44634;54.110;12.138;2022-11-15T13:58:47;25.80;;;16.70;;
16480;SDS011;44634;54.110;12.138;2022-11-15T14:01:16;25.30;;;15.80;;
16480;SDS011;44634;54.110;12.138;2022-11-15T14:03:47;24.00;;;15.50;;
16480;SDS011;44634;54.110;12.138;2022-11-15T14:06:19;25.63;;;16.13;;
16480;SDS011;44634;54.110;12.138;2022-11-15T14:09:03;25.80;;;16.37;;
16480;SDS011;44634;54.110;12.138;2022-11-15T14:11:52;23.43;;;15.73;;
16480;SDS011;44634;54.110;12.138;2022-11-15T14:14:23;28.17;;;17.10;;
16480;SDS011;44634;54.110;12.138;2022-11-15T14:16:53;26.80;;;17.00;;
16480;SDS011;44634;54.110;12.138;2022-11-15T14:19:35;24.57;;;16.30;;
16480;SDS011;44634;54.110;12.138;2022-11-15T14:22:12;28.77;;;18.00;;
16480;SDS011;44634;54.110;12.138;2022-11-15T14:24:43;35.40;;;19.20;;
16480;SDS011;44634;54.110;12.138;2022-11-15T14:27:19;31.70;;;19.43;;
16480;SDS011;44634;54.110;12.138;2022-11-15T14:29:50;31.43;;;18.30;;
16480;SDS011;44634;54.110;12.138;2022-11-15T14:32:19;29.10;;;18.00;;
16480;SDS011;44634;54.110;12.138;2022-11-15T14:34:49;31.57;;;18.87;;
16480;SDS011;44634;54.110;12.138;2022-11-15T14:37:22;30.40;;;18.17;;
16480;SDS011;44634;54.110;12.138;2022-11-15T14:39:51;32.83;;;18.37;;
16480;SDS011;44634;54.110;12.138;2022-11-15T14:42:20;32.37;;;18.73;;
16480;SDS011;44634;54.110;12.138;2022-11-15T14:44:50;35.17;;;18.77;;
16480;SDS011;44634;54.110;12.138;2022-11-15T14:47:18;37.47;;;19.67;;
16480;SDS011;44634;54.110;12.138;2022-11-15T14:49:47;37.00;;;20.20;;
16480;SDS011;44634;54.110;12.138;2022-11-15T14:52:25;37.63;;;20.17;;
16480;SDS011;44634;54.110;12.138;2022-11-15T14:54:58;37.67;;;20.30;;
16480;SDS011;44634;54.110;12.138;2022-11-15T14:57:27;38.13;;;20.03;;
16480;SDS011;44634;54.110;12.138;2022-11-15T14:59:57;38.87;;;21.13;;
16480;SDS011;44634;54.110;12.138;2022-11-15T15:02:25;40.20;;;20.77;;
16480;SDS011;44634;54.110;12.138;2022-11-15T15:04:54;39.33;;;21.43;;
16480;SDS011;44634;54.110;12.138;2022-11-15T15:07:22;39.67;;;20.47;;
16480;SDS011;44634;54.110;12.138;2022-11-15T15:09:49;41.40;;;20.80;;